createdAt,value
2017-12-30T00:00:25.397Z,998.77
2017-12-30T00:01:34.337Z,998.85
2017-12-30T00:02:43.020Z,998.9
2017-12-30T00:03:51.701Z,998.92
2017-12-30T00:05:00.380Z,998.94
2017-12-30T00:06:09.574Z,998.91
2017-12-30T00:07:18.262Z,998.96
2017-12-30T00:08:27.198Z,998.94
2017-12-30T00:09:36.460Z,999
2017-12-30T00:10:45.474Z,999.04
2017-12-30T00:11:54.413Z,999
2017-12-30T00:13:03.607Z,998.94
2017-12-30T00:14:12.801Z,999
2017-12-30T00:15:21.736Z,999.06
2017-12-30T00:16:30.973Z,999.04
2017-12-30T00:17:39.934Z,999.11
2017-12-30T00:18:48.617Z,999.18
2017-12-30T00:19:57.297Z,999.17
2017-12-30T00:21:05.970Z,999.19
2017-12-30T00:22:14.924Z,999.18
2017-12-30T00:23:23.876Z,999.17
2017-12-30T00:24:32.560Z,999.21
2017-12-30T00:25:41.760Z,999.25
2017-12-30T00:26:50.701Z,999.21
2017-12-30T00:27:59.370Z,999.21
2017-12-30T00:29:08.317Z,999.19
2017-12-30T00:30:17.014Z,999.17
2017-12-30T00:31:25.947Z,999.15
2017-12-30T00:32:34.896Z,999.19
2017-12-30T00:33:43.840Z,999.21
2017-12-30T00:34:52.596Z,999.19
2017-12-30T00:36:01.285Z,999.18
2017-12-30T00:37:10.234Z,999.14
2017-12-30T00:38:18.913Z,999.19
2017-12-30T00:39:27.846Z,999.18
2017-12-30T00:40:37.313Z,999.19
2017-12-30T00:41:45.979Z,999.23
2017-12-30T00:42:55.447Z,999.22
2017-12-30T00:44:04.395Z,999.22
2017-12-30T00:45:13.082Z,999.23
2017-12-30T00:46:22.025Z,999.25
2017-12-30T00:47:31.220Z,999.27
2017-12-30T00:48:40.156Z,999.24
2017-12-30T00:49:49.339Z,999.22
2017-12-30T00:50:58.286Z,999.22
2017-12-30T00:52:07.523Z,999.17
2017-12-30T00:53:16.206Z,999.15
2017-12-30T00:54:25.403Z,999.14
2017-12-30T00:55:34.594Z,999.11
2017-12-30T00:56:43.262Z,999.11
2017-12-30T00:57:52.457Z,999.13
2017-12-30T00:59:01.136Z,999.2
2017-12-30T01:00:09.816Z,999.2
2017-12-30T01:01:19.113Z,999.24
2017-12-30T01:02:28.055Z,999.26
2017-12-30T01:03:37.507Z,999.25
2017-12-30T01:04:46.180Z,999.25
2017-12-30T01:05:55.626Z,999.34
2017-12-30T01:07:04.294Z,999.34
2017-12-30T01:08:13.493Z,999.34
2017-12-30T01:09:22.432Z,999.33
2017-12-30T01:10:31.873Z,999.36
2017-12-30T01:11:40.544Z,999.38
2017-12-30T01:12:49.746Z,999.4
2017-12-30T01:13:59.005Z,999.44
2017-12-30T01:15:08.191Z,999.44
2017-12-30T01:16:17.131Z,999.43
2017-12-30T01:17:26.076Z,999.48
2017-12-30T01:18:34.765Z,999.48
2017-12-30T01:19:43.693Z,999.49
2017-12-30T01:20:52.392Z,999.43
2017-12-30T01:22:01.321Z,999.36
2017-12-30T01:23:10.257Z,999.41
2017-12-30T01:24:19.203Z,999.43
2017-12-30T01:25:28.156Z,999.44
2017-12-30T01:26:37.348Z,999.41
2017-12-30T01:28:05.743Z,999.37
2017-12-30T01:29:14.969Z,999.38
2017-12-30T01:30:23.641Z,999.35
2017-12-30T01:31:32.573Z,999.38
2017-12-30T01:32:41.254Z,999.37
2017-12-30T01:33:50.202Z,999.35
2017-12-30T01:34:59.401Z,999.35
2017-12-30T01:36:08.342Z,999.37
2017-12-30T01:37:17.552Z,999.3
2017-12-30T01:38:26.747Z,999.32
2017-12-30T01:39:35.448Z,999.33
2017-12-30T01:40:44.153Z,999.32
2017-12-30T01:41:53.622Z,999.3
2017-12-30T01:43:02.306Z,999.27
2017-12-30T01:44:11.246Z,999.23
2017-12-30T01:45:19.932Z,999.2
2017-12-30T01:46:29.138Z,999.19
2017-12-30T01:47:38.083Z,999.11
2017-12-30T01:48:48.113Z,999.04
2017-12-30T01:49:57.074Z,999.04
2017-12-30T01:51:06.533Z,999.01
2017-12-30T01:52:15.466Z,999.04
2017-12-30T01:53:24.399Z,999.04
2017-12-30T01:54:33.085Z,999
2017-12-30T01:55:42.027Z,998.95
2017-12-30T01:56:51.226Z,998.96
2017-12-30T01:58:00.169Z,998.95
2017-12-30T01:59:09.110Z,998.97
2017-12-30T02:00:18.565Z,998.95
2017-12-30T02:01:28.290Z,998.96
2017-12-30T02:02:36.964Z,998.92
2017-12-30T02:03:45.904Z,998.91
2017-12-30T02:04:55.110Z,998.9
2017-12-30T02:06:04.056Z,998.85
2017-12-30T02:07:12.727Z,998.9
2017-12-30T02:08:21.403Z,998.89
2017-12-30T02:09:30.086Z,998.92
2017-12-30T02:10:39.278Z,998.91
2017-12-30T02:11:48.476Z,998.92
2017-12-30T02:12:57.140Z,998.92
2017-12-30T02:14:06.080Z,998.86
2017-12-30T02:15:15.016Z,998.82
2017-12-30T02:16:23.946Z,998.76
2017-12-30T02:17:32.630Z,998.74
2017-12-30T02:18:41.310Z,998.68
2017-12-30T02:19:50.514Z,998.67
2017-12-30T02:20:59.446Z,998.63
2017-12-30T02:22:08.925Z,998.63
2017-12-30T02:23:17.866Z,998.55
2017-12-30T02:24:26.545Z,998.52
2017-12-30T02:25:35.231Z,998.48
2017-12-30T02:26:43.914Z,998.48
2017-12-30T02:27:52.862Z,998.45
2017-12-30T02:29:01.810Z,998.39
2017-12-30T02:30:10.751Z,998.38
2017-12-30T02:31:20.217Z,998.38
2017-12-30T02:32:29.426Z,998.35
2017-12-30T02:33:38.368Z,998.32
2017-12-30T02:34:47.563Z,998.24
2017-12-30T02:35:56.509Z,998.24
2017-12-30T02:37:05.190Z,998.16
2017-12-30T02:38:13.882Z,998.12
2017-12-30T02:39:22.564Z,998.13
2017-12-30T02:40:32.045Z,998.17
2017-12-30T02:41:40.724Z,998.17
2017-12-30T02:42:49.675Z,998.19
2017-12-30T02:43:59.192Z,998.19
2017-12-30T02:45:08.656Z,998.24
2017-12-30T02:46:18.383Z,998.21
2017-12-30T02:47:27.087Z,998.24
2017-12-30T02:48:36.039Z,998.24
2017-12-30T02:49:44.723Z,998.2
2017-12-30T02:50:53.922Z,998.21
2017-12-30T02:52:02.863Z,998.23
2017-12-30T02:53:11.619Z,998.23
2017-12-30T02:54:20.832Z,998.21
2017-12-30T02:55:29.772Z,998.19
2017-12-30T02:56:38.971Z,998.15
2017-12-30T02:57:48.184Z,998.15
2017-12-30T02:58:57.645Z,998.07
2017-12-30T03:00:06.596Z,998.07
2017-12-30T03:01:15.543Z,998.02
2017-12-30T03:02:24.219Z,998.05
2017-12-30T03:03:33.422Z,998.02
2017-12-30T03:04:42.357Z,998
2017-12-30T03:05:51.816Z,998
2017-12-30T03:07:00.761Z,998.02
2017-12-30T03:08:09.522Z,998.02
2017-12-30T03:09:19.019Z,997.98
2017-12-30T03:10:27.691Z,997.94
2017-12-30T03:11:36.629Z,997.95
2017-12-30T03:12:45.845Z,997.97
2017-12-30T03:13:54.787Z,997.9
2017-12-30T03:15:03.735Z,997.83
2017-12-30T03:16:12.933Z,997.82
2017-12-30T03:17:21.876Z,997.76
2017-12-30T03:18:30.557Z,997.72
2017-12-30T03:19:39.487Z,997.7
2017-12-30T03:20:48.691Z,997.68
2017-12-30T03:21:57.626Z,997.68
2017-12-30T03:23:06.301Z,997.67
2017-12-30T03:24:15.546Z,997.7
2017-12-30T03:25:24.475Z,997.7
2017-12-30T03:26:33.417Z,997.77
2017-12-30T03:27:42.345Z,997.79
2017-12-30T03:28:51.285Z,997.81
2017-12-30T03:30:00.485Z,997.8
2017-12-30T03:31:09.423Z,997.77
2017-12-30T03:32:18.646Z,997.76
2017-12-30T03:33:27.846Z,997.75
2017-12-30T03:34:36.809Z,997.72
2017-12-30T03:35:45.749Z,997.68
2017-12-30T03:36:54.952Z,997.7
2017-12-30T03:38:03.908Z,997.69
2017-12-30T03:39:12.850Z,997.67
2017-12-30T03:40:22.136Z,997.64
2017-12-30T03:41:31.076Z,997.59
2017-12-30T03:42:40.291Z,997.55
2017-12-30T03:43:49.489Z,997.63
2017-12-30T03:44:58.682Z,997.58
2017-12-30T03:46:07.626Z,997.52
2017-12-30T03:47:16.569Z,997.54
2017-12-30T03:48:25.505Z,997.53
2017-12-30T03:49:34.183Z,997.53
2017-12-30T03:50:43.649Z,997.53
2017-12-30T03:51:52.853Z,997.49
2017-12-30T03:53:01.532Z,997.51
2017-12-30T03:54:10.733Z,997.58
2017-12-30T03:55:19.419Z,997.58
2017-12-30T03:56:28.365Z,997.59
2017-12-30T03:57:37.573Z,997.61
2017-12-30T03:58:46.785Z,997.58
2017-12-30T03:59:55.729Z,997.52
2017-12-30T04:01:04.935Z,997.51
2017-12-30T04:02:14.135Z,997.53
2017-12-30T04:03:23.345Z,997.55
2017-12-30T04:04:32.030Z,997.59
2017-12-30T04:05:40.719Z,997.61
2017-12-30T04:06:49.971Z,997.59
2017-12-30T04:07:58.917Z,997.6
2017-12-30T04:09:08.131Z,997.57
2017-12-30T04:10:16.815Z,997.63
2017-12-30T04:11:26.048Z,997.62
2017-12-30T04:12:34.724Z,997.61
2017-12-30T04:13:43.684Z,997.6
2017-12-30T04:14:52.885Z,997.58
2017-12-30T04:16:01.560Z,997.55
2017-12-30T04:17:10.761Z,997.56
2017-12-30T04:18:20.226Z,997.55
2017-12-30T04:19:29.429Z,997.45
2017-12-30T04:20:38.105Z,997.38
2017-12-30T04:21:47.041Z,997.42
2017-12-30T04:22:55.994Z,997.32
2017-12-30T04:24:04.680Z,997.29
2017-12-30T04:25:13.638Z,997.3
2017-12-30T04:26:22.308Z,997.23
2017-12-30T04:27:31.243Z,997.26
2017-12-30T04:28:40.708Z,997.29
2017-12-30T04:29:49.933Z,997.25
2017-12-30T04:30:58.897Z,997.27
2017-12-30T04:32:07.586Z,997.26
2017-12-30T04:33:16.519Z,997.19
2017-12-30T04:34:25.201Z,997.13
2017-12-30T04:35:34.146Z,997.12
2017-12-30T04:36:43.160Z,997.13
2017-12-30T04:37:52.042Z,997.09
2017-12-30T04:39:00.970Z,997.06
2017-12-30T04:40:09.645Z,996.93
2017-12-30T04:41:18.570Z,996.93
2017-12-30T04:42:27.247Z,996.99
2017-12-30T04:43:36.438Z,997.02
2017-12-30T04:44:45.371Z,997.02
2017-12-30T04:45:54.056Z,997.06
2017-12-30T04:47:03.783Z,997.06
2017-12-30T04:48:12.727Z,997.17
2017-12-30T04:49:21.408Z,997.2
2017-12-30T04:50:30.377Z,997.2
2017-12-30T04:51:39.838Z,997.18
2017-12-30T04:52:49.290Z,997.14
2017-12-30T04:53:58.237Z,997.1
2017-12-30T04:55:07.183Z,996.99
2017-12-30T04:56:16.385Z,996.99
2017-12-30T04:57:25.846Z,996.93
2017-12-30T04:58:34.531Z,996.98
2017-12-30T04:59:43.777Z,997
2017-12-30T05:00:52.471Z,997
2017-12-30T05:02:01.148Z,996.92
2017-12-30T05:03:09.825Z,996.94
2017-12-30T05:04:18.775Z,996.96
2017-12-30T05:05:27.722Z,997.01
2017-12-30T05:06:36.660Z,997.01
2017-12-30T05:07:45.599Z,996.99
2017-12-30T05:08:54.281Z,996.97
2017-12-30T05:10:02.963Z,996.98
2017-12-30T05:11:11.642Z,996.91
2017-12-30T05:12:20.313Z,996.88
2017-12-30T05:13:29.254Z,996.93
2017-12-30T05:14:37.948Z,996.97
2017-12-30T05:15:47.139Z,996.96
2017-12-30T05:16:55.826Z,996.94
2017-12-30T05:18:05.287Z,996.88
2017-12-30T05:19:14.218Z,996.87
2017-12-30T05:20:22.895Z,996.84
2017-12-30T05:21:31.850Z,996.78
2017-12-30T05:22:40.795Z,996.78
2017-12-30T05:23:49.754Z,996.8
2017-12-30T05:24:58.690Z,996.78
2017-12-30T05:26:07.983Z,996.72
2017-12-30T05:27:16.655Z,996.68
2017-12-30T05:28:25.597Z,996.64
2017-12-30T05:29:34.806Z,996.68
2017-12-30T05:30:43.483Z,996.54
2017-12-30T05:31:52.675Z,996.61
2017-12-30T05:33:01.612Z,996.61
2017-12-30T05:34:10.374Z,996.62
2017-12-30T05:35:19.053Z,996.72
2017-12-30T05:36:28.243Z,996.84
2017-12-30T05:37:36.918Z,996.87
2017-12-30T05:38:45.886Z,996.9
2017-12-30T05:39:55.342Z,996.98
2017-12-30T05:41:04.279Z,996.95
2017-12-30T05:42:13.233Z,996.9
2017-12-30T05:43:22.173Z,996.93
2017-12-30T05:44:31.097Z,996.88
2017-12-30T05:45:40.033Z,996.9
2017-12-30T05:46:48.987Z,996.86
2017-12-30T05:47:57.923Z,996.82
2017-12-30T05:49:06.866Z,996.83
2017-12-30T05:50:16.070Z,996.8
2017-12-30T05:51:25.287Z,996.79
2017-12-30T05:52:34.229Z,996.7
2017-12-30T05:53:42.915Z,996.7
2017-12-30T05:54:52.653Z,996.72
2017-12-30T05:56:01.613Z,996.67
2017-12-30T05:57:10.298Z,996.61
2017-12-30T05:58:18.990Z,996.52
2017-12-30T05:59:28.187Z,996.44
2017-12-30T06:00:36.867Z,996.42
2017-12-30T06:01:45.810Z,996.4
2017-12-30T06:02:54.546Z,996.36
2017-12-30T06:04:03.482Z,996.36
2017-12-30T06:05:12.420Z,996.42
2017-12-30T06:06:21.089Z,996.46
2017-12-30T06:07:30.026Z,996.43
2017-12-30T06:08:38.706Z,996.35
2017-12-30T06:09:47.903Z,996.31
2017-12-30T06:10:56.593Z,996.25
2017-12-30T06:12:05.605Z,996.26
2017-12-30T06:13:15.085Z,996.23
2017-12-30T06:14:24.029Z,996.13
2017-12-30T06:15:32.974Z,996.13
2017-12-30T06:16:42.173Z,996.12
2017-12-30T06:17:50.858Z,996.12
2017-12-30T06:18:59.804Z,996.11
2017-12-30T06:20:08.487Z,996.11
2017-12-30T06:21:17.423Z,996.13
2017-12-30T06:22:26.626Z,996.16
2017-12-30T06:23:35.308Z,996.15
2017-12-30T06:24:43.999Z,996.09
2017-12-30T06:25:52.936Z,996.01
2017-12-30T06:27:02.129Z,995.95
2017-12-30T06:28:11.331Z,995.91
2017-12-30T06:29:20.279Z,995.89
2017-12-30T06:30:29.472Z,995.8
2017-12-30T06:31:38.794Z,995.72
2017-12-30T06:32:47.739Z,995.66
2017-12-30T06:33:56.415Z,995.62
2017-12-30T06:35:05.361Z,995.61
2017-12-30T06:36:14.059Z,995.61
2017-12-30T06:37:23.282Z,995.56
2017-12-30T06:38:32.575Z,995.47
2017-12-30T06:39:41.771Z,995.42
2017-12-30T06:40:50.721Z,995.39
2017-12-30T06:41:59.652Z,995.38
2017-12-30T06:43:08.598Z,995.35
2017-12-30T06:44:17.279Z,995.32
2017-12-30T06:45:26.238Z,995.24
2017-12-30T06:46:35.161Z,995.18
2017-12-30T06:47:44.620Z,995.25
2017-12-30T06:48:53.839Z,995.25
2017-12-30T06:50:02.772Z,995.16
2017-12-30T06:51:11.976Z,995.06
2017-12-30T06:52:21.443Z,995.04
2017-12-30T06:53:30.656Z,994.96
2017-12-30T06:54:39.608Z,994.9
2017-12-30T06:55:48.605Z,994.87
2017-12-30T06:56:58.135Z,994.84
2017-12-30T06:58:07.333Z,994.84
2017-12-30T06:59:16.009Z,994.81
2017-12-30T07:00:24.688Z,994.74
2017-12-30T07:01:33.901Z,994.65
2017-12-30T07:02:43.133Z,994.64
2017-12-30T07:03:52.433Z,994.55
2017-12-30T07:05:01.340Z,994.51
2017-12-30T07:06:10.591Z,994.52
2017-12-30T07:07:19.762Z,994.54
2017-12-30T07:08:28.465Z,994.53
2017-12-30T07:09:37.426Z,994.48
2017-12-30T07:10:46.895Z,994.45
2017-12-30T07:11:55.587Z,994.42
2017-12-30T07:13:04.552Z,994.38
2017-12-30T07:14:13.486Z,994.33
2017-12-30T07:15:22.162Z,994.39
2017-12-30T07:16:30.830Z,994.39
2017-12-30T07:17:40.025Z,994.33
2017-12-30T07:18:49.228Z,994.3
2017-12-30T07:19:58.433Z,994.3
2017-12-30T07:21:07.633Z,994.29
2017-12-30T07:22:16.826Z,994.19
2017-12-30T07:23:25.773Z,994.22
2017-12-30T07:24:34.983Z,994.29
2017-12-30T07:25:43.939Z,994.23
2017-12-30T07:26:53.136Z,994.2
2017-12-30T07:28:02.078Z,994.13
2017-12-30T07:29:11.287Z,994.14
2017-12-30T07:30:20.257Z,994.09
2017-12-30T07:31:28.942Z,994
2017-12-30T07:32:37.634Z,993.99
2017-12-30T07:33:46.324Z,993.94
2017-12-30T07:34:55.613Z,993.91
2017-12-30T07:36:04.838Z,993.99
2017-12-30T07:37:13.521Z,993.95
2017-12-30T07:38:22.480Z,993.95
2017-12-30T07:39:31.687Z,993.93
2017-12-30T07:40:40.633Z,993.94
2017-12-30T07:41:49.835Z,993.98
2017-12-30T07:42:59.329Z,993.98
2017-12-30T07:44:08.264Z,994
2017-12-30T07:45:17.475Z,994
2017-12-30T07:46:26.435Z,993.86
2017-12-30T07:47:35.641Z,993.86
2017-12-30T07:48:44.606Z,993.83
2017-12-30T07:49:54.072Z,993.71
2017-12-30T07:51:03.286Z,993.64
2017-12-30T07:52:12.246Z,993.61
2017-12-30T07:53:21.207Z,993.5
2017-12-30T07:54:29.899Z,993.36
2017-12-30T07:55:39.095Z,993.31
2017-12-30T07:56:47.775Z,993.31
2017-12-30T07:57:56.476Z,993.24
2017-12-30T07:59:05.680Z,993.19
2017-12-30T08:00:14.637Z,993.14
2017-12-30T08:01:23.843Z,993.09
2017-12-30T08:02:33.586Z,993.04
2017-12-30T08:03:42.558Z,993.05
2017-12-30T08:04:51.240Z,992.97
2017-12-30T08:05:59.933Z,993
2017-12-30T08:10:51.180Z,992.99
2017-12-30T08:12:00.378Z,992.92
2017-12-30T08:13:09.565Z,992.87
2017-12-30T08:14:18.755Z,992.83
2017-12-30T08:18:00.064Z,993.01
2017-12-30T08:19:09.262Z,993
2017-12-30T08:20:18.206Z,992.89
2017-12-30T08:21:27.166Z,992.9
2017-12-30T08:22:36.106Z,992.94
2017-12-30T08:23:44.776Z,992.8
2017-12-30T08:24:53.991Z,992.78
2017-12-30T08:26:02.943Z,992.75
2017-12-30T08:27:12.163Z,992.67
2017-12-30T08:28:20.853Z,992.67
2017-12-30T08:29:30.324Z,992.8
2017-12-30T08:30:39.780Z,992.75
2017-12-30T08:31:48.452Z,992.76
2017-12-30T08:32:57.415Z,992.75
2017-12-30T08:34:06.618Z,992.7
2017-12-30T08:35:15.374Z,992.68
2017-12-30T08:36:24.056Z,992.65
2017-12-30T08:37:33.032Z,992.58
2017-12-30T08:38:42.259Z,992.53
2017-12-30T08:39:51.207Z,992.57
2017-12-30T08:41:00.700Z,992.59
2017-12-30T08:42:09.893Z,992.51
2017-12-30T08:43:19.107Z,992.48
2017-12-30T08:44:27.785Z,992.42
2017-12-30T08:45:36.998Z,992.34
2017-12-30T08:46:46.203Z,992.33
2017-12-30T08:47:55.153Z,992.35
2017-12-30T08:49:04.113Z,992.27
2017-12-30T08:50:13.051Z,992.14
2017-12-30T08:51:22.000Z,992.14
2017-12-30T08:52:30.946Z,992.16
2017-12-30T08:53:39.892Z,992.01
2017-12-30T08:54:49.104Z,991.96
2017-12-30T08:55:58.324Z,992.07
2017-12-30T08:57:07.794Z,992.03
2017-12-30T08:58:16.758Z,992.05
2017-12-30T08:59:25.473Z,992.07
2017-12-30T09:00:34.443Z,992
2017-12-30T09:01:43.917Z,991.98
2017-12-30T09:02:53.439Z,991.93
2017-12-30T09:04:02.672Z,991.98
2017-12-30T09:05:11.620Z,991.99
2017-12-30T09:06:20.305Z,991.93
2017-12-30T09:07:28.988Z,991.91
2017-12-30T09:08:37.673Z,991.93
2017-12-30T09:09:46.363Z,992.02
2017-12-30T09:10:55.043Z,991.87
2017-12-30T09:12:03.765Z,991.98
2017-12-30T09:13:12.722Z,992.04
2017-12-30T09:14:21.927Z,992.06
2017-12-30T09:15:31.138Z,992.05
2017-12-30T09:16:40.680Z,992.07
2017-12-30T09:17:49.892Z,992.03
2017-12-30T09:18:58.835Z,992.05
2017-12-30T09:20:07.775Z,992.1
2017-12-30T09:21:16.457Z,992.04
2017-12-30T09:22:25.155Z,992.11
2017-12-30T09:23:33.859Z,992.11
2017-12-30T09:24:42.622Z,992.1
2017-12-30T09:25:51.832Z,992.03
2017-12-30T09:27:00.770Z,992.12
2017-12-30T09:28:09.762Z,992.16
2017-12-30T09:29:18.978Z,992.19
2017-12-30T09:30:27.970Z,992.2
2017-12-30T09:31:36.641Z,992.14
2017-12-30T09:32:45.326Z,992.15
2017-12-30T09:33:54.531Z,992.16
2017-12-30T09:35:03.221Z,992.05
2017-12-30T09:36:12.425Z,992.04
2017-12-30T09:37:21.630Z,992.06
2017-12-30T09:38:30.305Z,992.08
2017-12-30T09:39:39.270Z,992.19
2017-12-30T09:40:48.265Z,992.2
2017-12-30T09:41:57.470Z,992.23
2017-12-30T09:43:06.419Z,992.19
2017-12-30T09:44:15.359Z,992.18
2017-12-30T09:45:24.566Z,992.1
2017-12-30T09:46:33.253Z,992.07
2017-12-30T09:47:41.948Z,991.96
2017-12-30T09:48:50.642Z,992.02
2017-12-30T09:49:59.839Z,991.98
2017-12-30T09:51:09.305Z,992.01
2017-12-30T09:52:18.281Z,992.09
2017-12-30T09:53:27.228Z,992.06
2017-12-30T09:54:36.705Z,992.08
2017-12-30T09:55:46.091Z,992.11
2017-12-30T09:56:55.688Z,992.08
2017-12-30T09:58:04.385Z,992.04
2017-12-30T09:59:14.137Z,992.01
2017-12-30T10:00:23.076Z,991.95
2017-12-30T10:01:32.014Z,991.95
2017-12-30T10:02:41.220Z,991.92
2017-12-30T10:03:50.160Z,992.02
2017-12-30T10:04:59.227Z,991.97
2017-12-30T10:06:08.495Z,991.86
2017-12-30T10:07:17.187Z,991.81
2017-12-30T10:08:26.120Z,991.73
2017-12-30T10:09:35.323Z,991.78
2017-12-30T10:10:44.535Z,991.73
2017-12-30T10:11:53.475Z,991.75
2017-12-30T10:13:02.415Z,991.8
2017-12-30T10:14:11.361Z,991.76
2017-12-30T10:15:20.313Z,991.76
2017-12-30T10:16:29.064Z,991.73
2017-12-30T10:17:38.275Z,991.66
2017-12-30T10:18:47.227Z,991.64
2017-12-30T10:19:56.181Z,991.59
2017-12-30T10:21:05.123Z,991.56
2017-12-30T10:22:14.068Z,991.46
2017-12-30T10:23:22.744Z,991.49
2017-12-30T10:24:31.684Z,991.5
2017-12-30T10:25:40.642Z,991.48
2017-12-30T10:26:50.366Z,991.53
2017-12-30T10:27:59.595Z,991.42
2017-12-30T10:29:08.378Z,991.4
2017-12-30T10:30:17.686Z,991.4
2017-12-30T10:31:26.371Z,991.39
2017-12-30T10:32:35.316Z,991.35
2017-12-30T10:33:44.075Z,991.42
2017-12-30T10:34:52.749Z,991.43
2017-12-30T10:36:01.431Z,991.42
2017-12-30T10:37:10.902Z,991.38
2017-12-30T10:38:19.867Z,991.39
2017-12-30T10:39:29.081Z,991.41
2017-12-30T10:40:38.023Z,991.43
2017-12-30T10:41:46.982Z,991.49
2017-12-30T10:42:55.670Z,991.49
2017-12-30T10:44:04.614Z,991.5
2017-12-30T10:45:13.295Z,991.44
2017-12-30T10:46:22.491Z,991.42
2017-12-30T10:47:31.455Z,991.43
2017-12-30T10:48:40.138Z,991.46
2017-12-30T10:49:49.085Z,991.45
2017-12-30T10:50:57.767Z,991.46
2017-12-30T10:52:07.008Z,991.43
2017-12-30T10:53:16.492Z,991.49
2017-12-30T10:54:25.681Z,991.5
2017-12-30T10:55:34.615Z,991.51
2017-12-30T10:56:43.825Z,991.49
2017-12-30T10:57:53.088Z,991.47
2017-12-30T10:59:02.307Z,991.48
2017-12-30T11:00:11.260Z,991.64
2017-12-30T11:01:20.483Z,991.67
2017-12-30T11:02:29.425Z,991.6
2017-12-30T11:03:38.621Z,991.67
2017-12-30T11:04:47.649Z,991.69
2017-12-30T11:05:56.848Z,991.78
2017-12-30T11:07:06.044Z,991.78
2017-12-30T11:08:14.722Z,991.83
2017-12-30T11:09:23.671Z,991.82
2017-12-30T11:10:32.872Z,991.77
2017-12-30T11:11:42.339Z,991.76
2017-12-30T11:12:51.287Z,991.97
2017-12-30T11:14:00.499Z,991.9
2017-12-30T11:15:09.431Z,991.92
2017-12-30T11:16:18.376Z,991.98
2017-12-30T11:17:27.325Z,992.08
2017-12-30T11:18:36.290Z,992
2017-12-30T11:19:45.242Z,991.96
2017-12-30T11:20:54.447Z,991.95
2017-12-30T11:22:03.749Z,992.08
2017-12-30T11:23:13.271Z,992.01
2017-12-30T11:24:21.951Z,992.08
2017-12-30T11:25:30.641Z,992
2017-12-30T11:26:40.108Z,992.1
2017-12-30T11:27:49.046Z,992.14
2017-12-30T11:28:58.236Z,992.04
2017-12-30T11:30:06.940Z,992.06
2017-12-30T11:31:15.896Z,992.13
2017-12-30T11:32:24.836Z,992.18
2017-12-30T11:33:33.527Z,992.21
2017-12-30T11:34:42.731Z,992.1
2017-12-30T11:35:51.690Z,992.11
2017-12-30T11:37:00.650Z,992.19
2017-12-30T11:38:09.852Z,992.27
2017-12-30T11:39:19.046Z,992.18
2017-12-30T11:40:27.980Z,992.17
2017-12-30T11:41:36.674Z,992.22
2017-12-30T11:42:45.355Z,992.2
2017-12-30T11:43:54.037Z,992.16
2017-12-30T11:45:03.246Z,992.2
2017-12-30T11:46:12.214Z,992.17
2017-12-30T11:47:21.854Z,992.25
2017-12-30T11:48:31.065Z,992.2
2017-12-30T11:49:39.756Z,992.08
2017-12-30T11:50:48.955Z,992.1
2017-12-30T11:51:57.897Z,992.05
2017-12-30T11:53:06.589Z,992.19
2017-12-30T11:54:15.267Z,992.21
2017-12-30T11:55:23.969Z,992.08
2017-12-30T11:56:33.179Z,992.22
2017-12-30T11:57:42.122Z,992.26
2017-12-30T11:58:50.827Z,992.23
2017-12-30T11:59:59.796Z,992.24
2017-12-30T12:01:08.741Z,992.26
2017-12-30T12:02:17.677Z,992.33
2017-12-30T12:03:26.892Z,992.36
2017-12-30T12:04:35.858Z,992.38
2017-12-30T12:05:45.366Z,992.42
2017-12-30T12:06:54.833Z,992.38
2017-12-30T12:08:04.030Z,992.36
2017-12-30T12:09:12.992Z,992.28
2017-12-30T12:10:21.681Z,992.29
2017-12-30T12:11:30.900Z,992.24
2017-12-30T12:12:40.112Z,992.3
2017-12-30T12:13:48.789Z,992.37
2017-12-30T12:14:57.465Z,992.39
2017-12-30T12:16:06.678Z,992.32
2017-12-30T12:17:15.624Z,992.43
2017-12-30T12:18:24.630Z,992.58
2017-12-30T12:19:33.562Z,992.54
2017-12-30T12:20:42.787Z,992.53
2017-12-30T12:21:51.733Z,992.57
2017-12-30T12:23:00.419Z,992.64
2017-12-30T12:24:10.146Z,992.7
2017-12-30T12:25:19.376Z,992.66
2017-12-30T12:26:28.332Z,992.74
2017-12-30T12:27:37.537Z,992.64
2017-12-30T12:28:46.220Z,992.64
2017-12-30T12:29:54.900Z,992.6
2017-12-30T12:31:04.115Z,992.54
2017-12-30T12:32:13.316Z,992.58
2017-12-30T12:33:22.772Z,992.58
2017-12-30T12:34:31.970Z,992.48
2017-12-30T12:35:40.649Z,992.62
2017-12-30T12:36:49.328Z,992.56
2017-12-30T12:37:58.283Z,992.58
2017-12-30T12:39:07.221Z,992.61
2017-12-30T12:40:16.293Z,992.53
2017-12-30T12:41:25.495Z,992.62
2017-12-30T12:42:34.433Z,992.6
2017-12-30T12:43:43.116Z,992.79
2017-12-30T12:44:51.805Z,992.6
2017-12-30T12:46:00.486Z,992.7
2017-12-30T12:47:09.739Z,992.76
2017-12-30T12:48:18.686Z,992.8
2017-12-30T12:49:28.414Z,992.86
2017-12-30T12:50:37.622Z,992.75
2017-12-30T12:51:47.084Z,992.83
2017-12-30T12:52:56.024Z,992.85
2017-12-30T12:54:04.963Z,992.82
2017-12-30T12:55:14.433Z,992.9
2017-12-30T12:56:23.113Z,992.91
2017-12-30T12:57:32.583Z,992.9
2017-12-30T12:58:41.461Z,993.03
2017-12-30T12:59:50.423Z,993.08
2017-12-30T13:00:59.378Z,993.16
2017-12-30T13:02:09.129Z,993.12
2017-12-30T13:03:18.073Z,993.13
2017-12-30T13:04:27.262Z,993
2017-12-30T13:05:36.218Z,993.16
2017-12-30T13:06:45.216Z,993.07
2017-12-30T13:07:55.639Z,993.22
2017-12-30T13:09:04.332Z,993.18
2017-12-30T13:10:13.710Z,993.15
2017-12-30T13:11:22.920Z,993.22
2017-12-30T13:12:32.555Z,993.21
2017-12-30T13:13:41.240Z,993.35
2017-12-30T13:14:49.917Z,993.21
2017-12-30T13:15:58.867Z,993.37
2017-12-30T13:17:07.795Z,993.47
2017-12-30T13:18:16.810Z,993.45
2017-12-30T13:19:25.776Z,993.46
2017-12-30T13:20:35.239Z,993.53
2017-12-30T13:21:44.701Z,993.6
2017-12-30T13:22:53.650Z,993.62
2017-12-30T13:24:02.852Z,993.63
2017-12-30T13:25:12.059Z,993.78
2017-12-30T13:26:20.747Z,993.69
2017-12-30T13:27:36.110Z,993.88
2017-12-30T13:28:44.788Z,993.86
2017-12-30T13:29:53.728Z,993.95
2017-12-30T13:31:02.713Z,993.94
2017-12-30T13:32:11.922Z,993.9
2017-12-30T13:33:20.860Z,993.96
2017-12-30T13:34:30.586Z,993.94
2017-12-30T13:35:39.571Z,993.99
2017-12-30T13:36:48.503Z,993.98
2017-12-30T13:37:57.694Z,993.98
2017-12-30T13:39:06.917Z,994.05
2017-12-30T13:40:15.863Z,994.04
2017-12-30T13:41:24.541Z,994.12
2017-12-30T13:42:33.487Z,994.07
2017-12-30T13:43:42.714Z,994.26
2017-12-30T13:44:51.710Z,994.3
2017-12-30T13:46:00.900Z,994.4
2017-12-30T13:47:09.912Z,994.31
2017-12-30T13:48:19.130Z,994.32
2017-12-30T13:49:28.628Z,994.49
2017-12-30T13:50:37.644Z,994.36
2017-12-30T13:51:46.860Z,994.42
2017-12-30T13:52:56.067Z,994.34
2017-12-30T13:54:05.300Z,994.39
2017-12-30T13:55:14.519Z,994.39
2017-12-30T13:56:23.201Z,994.35
2017-12-30T13:57:32.667Z,994.33
2017-12-30T13:58:41.615Z,994.32
2017-12-30T13:59:50.817Z,994.41
2017-12-30T14:01:00.026Z,994.5
2017-12-30T14:02:08.973Z,994.52
2017-12-30T14:03:17.915Z,994.6
2017-12-30T14:04:26.597Z,994.46
2017-12-30T14:05:35.540Z,994.65
2017-12-30T14:06:44.482Z,994.56
2017-12-30T14:07:53.427Z,994.59
2017-12-30T14:09:02.406Z,994.7
2017-12-30T14:10:11.640Z,994.57
2017-12-30T14:11:20.612Z,994.68
2017-12-30T14:12:29.579Z,994.64
2017-12-30T14:13:38.254Z,994.61
2017-12-30T14:14:47.474Z,994.59
2017-12-30T14:15:56.703Z,994.71
2017-12-30T14:17:06.486Z,994.95
2017-12-30T14:18:15.433Z,995.16
2017-12-30T14:19:25.248Z,995.08
2017-12-30T14:20:35.648Z,994.95
2017-12-30T14:21:44.729Z,994.94
2017-12-30T14:22:53.416Z,994.89
2017-12-30T14:24:02.407Z,994.91
2017-12-30T14:25:11.117Z,994.93
2017-12-30T14:26:20.060Z,994.76
2017-12-30T14:27:29.012Z,994.74
2017-12-30T14:28:38.778Z,994.84
2017-12-30T14:29:47.457Z,994.78
2017-12-30T14:30:56.663Z,994.8
2017-12-30T14:32:05.624Z,994.79